sensor_id;sensor_type;location;lat;lon;timestamp;P1;durP1;ratioP1;P2;durP2;ratioP2
56746;SDS011;42623;49.978;9.966;2023-04-19T00:00:07;8.35;;;5.00;;
56746;SDS011;42623;49.978;9.966;2023-04-19T00:00:21;9.33;;;5.30;;
56746;SDS011;42623;49.978;9.966;2023-04-19T00:00:31;10.40;;;5.45;;
56746;SDS011;42623;49.978;9.966;2023-04-19T00:00:41;8.65;;;5.03;;
56746;SDS011;42623;49.978;9.966;2023-04-19T00:00:52;8.27;;;4.93;;
56746;SDS011;42623;49.978;9.966;2023-04-19T00:01:02;7.67;;;4.47;;
56746;SDS011;42623;49.978;9.966;2023-04-19T00:01:13;7.88;;;4.38;;
56746;SDS011;42623;49.978;9.966;2023-04-19T00:01:23;8.20;;;4.40;;
56746;SDS011;42623;49.978;9.966;2023-04-19T00:01:33;7.95;;;4.57;;
56746;SDS011;42623;49.978;9.966;2023-04-19T00:01:44;7.68;;;4.28;;
56746;SDS011;42623;49.978;9.966;2023-04-19T00:01:54;7.47;;;4.40;;
56746;SDS011;42623;49.978;9.966;2023-04-19T00:02:04;7.50;;;4.30;;
56746;SDS011;42623;49.978;9.966;2023-04-19T00:02:15;8.25;;;5.22;;
56746;SDS011;42623;49.978;9.966;2023-04-19T00:02:25;8.47;;;5.30;;
56746;SDS011;42623;49.978;9.966;2023-04-19T00:02:35;8.80;;;5.37;;
56746;SDS011;42623;49.978;9.966;2023-04-19T00:02:57;8.73;;;4.73;;
56746;SDS011;42623;49.978;9.966;2023-04-19T00:03:08;8.00;;;4.57;;
56746;SDS011;42623;49.978;9.966;2023-04-19T00:03:19;7.90;;;4.55;;
56746;SDS011;42623;49.978;9.966;2023-04-19T00:03:29;7.50;;;4.47;;
56746;SDS011;42623;49.978;9.966;2023-04-19T00:03:40;8.43;;;5.05;;
56746;SDS011;42623;49.978;9.966;2023-04-19T00:03:50;7.97;;;5.00;;
56746;SDS011;42623;49.978;9.966;2023-04-19T00:04:00;8.00;;;4.60;;
56746;SDS011;42623;49.978;9.966;2023-04-19T00:04:11;7.18;;;3.92;;
56746;SDS011;42623;49.978;9.966;2023-04-19T00:04:23;8.35;;;4.03;;
56746;SDS011;42623;49.978;9.966;2023-04-19T00:04:34;8.97;;;4.80;;
56746;SDS011;42623;49.978;9.966;2023-04-19T00:04:46;9.27;;;5.25;;
56746;SDS011;42623;49.978;9.966;2023-04-19T00:04:57;10.73;;;5.30;;
56746;SDS011;42623;49.978;9.966;2023-04-19T00:05:07;10.87;;;5.40;;
56746;SDS011;42623;49.978;9.966;2023-04-19T00:05:17;11.80;;;5.93;;
56746;SDS011;42623;49.978;9.966;2023-04-19T00:05:29;9.60;;;5.73;;
56746;SDS011;42623;49.978;9.966;2023-04-19T00:05:39;8.50;;;5.13;;
56746;SDS011;42623;49.978;9.966;2023-04-19T00:05:50;6.57;;;4.10;;
56746;SDS011;42623;49.978;9.966;2023-04-19T00:06:02;6.63;;;3.85;;
56746;SDS011;42623;49.978;9.966;2023-04-19T00:06:13;7.03;;;3.90;;
56746;SDS011;42623;49.978;9.966;2023-04-19T00:06:24;8.83;;;4.60;;
56746;SDS011;42623;49.978;9.966;2023-04-19T00:06:34;9.02;;;4.88;;
56746;SDS011;42623;49.978;9.966;2023-04-19T00:06:45;8.95;;;4.68;;
56746;SDS011;42623;49.978;9.966;2023-04-19T00:06:56;7.90;;;3.88;;
56746;SDS011;42623;49.978;9.966;2023-04-19T00:07:07;8.88;;;4.13;;
56746;SDS011;42623;49.978;9.966;2023-04-19T00:07:17;8.17;;;4.20;;
56746;SDS011;42623;49.978;9.966;2023-04-19T00:07:29;8.10;;;4.32;;
56746;SDS011;42623;49.978;9.966;2023-04-19T00:07:39;7.40;;;4.10;;
56746;SDS011;42623;49.978;9.966;2023-04-19T00:07:49;8.87;;;4.40;;
56746;SDS011;42623;49.978;9.966;2023-04-19T00:08:00;8.68;;;4.28;;
56746;SDS011;42623;49.978;9.966;2023-04-19T00:08:10;8.20;;;4.10;;
56746;SDS011;42623;49.978;9.966;2023-04-19T00:08:20;6.70;;;3.83;;
56746;SDS011;42623;49.978;9.966;2023-04-19T00:08:30;6.93;;;3.97;;
56746;SDS011;42623;49.978;9.966;2023-04-19T00:08:40;7.10;;;4.07;;
56746;SDS011;42623;49.978;9.966;2023-04-19T00:08:51;8.27;;;4.30;;
56746;SDS011;42623;49.978;9.966;2023-04-19T00:09:01;7.73;;;3.97;;
56746;SDS011;42623;49.978;9.966;2023-04-19T00:09:11;8.10;;;4.13;;
56746;SDS011;42623;49.978;9.966;2023-04-19T00:09:21;6.83;;;3.83;;
56746;SDS011;42623;49.978;9.966;2023-04-19T00:09:31;7.53;;;4.20;;
56746;SDS011;42623;49.978;9.966;2023-04-19T00:09:42;7.67;;;4.37;;
56746;SDS011;42623;49.978;9.966;2023-04-19T00:09:52;7.78;;;4.60;;
56746;SDS011;42623;49.978;9.966;2023-04-19T00:10:02;7.43;;;4.37;;
56746;SDS011;42623;49.978;9.966;2023-04-19T00:10:12;8.70;;;4.90;;
56746;SDS011;42623;49.978;9.966;2023-04-19T00:10:22;9.20;;;4.80;;
56746;SDS011;42623;49.978;9.966;2023-04-19T00:10:33;9.47;;;4.80;;
56746;SDS011;42623;49.978;9.966;2023-04-19T00:10:44;7.53;;;3.97;;
56746;SDS011;42623;49.978;9.966;2023-04-19T00:10:54;7.63;;;3.88;;
56746;SDS011;42623;49.978;9.966;2023-04-19T00:11:05;7.20;;;3.60;;
56746;SDS011;42623;49.978;9.966;2023-04-19T00:11:15;7.17;;;3.57;;
56746;SDS011;42623;49.978;9.966;2023-04-19T00:11:25;6.90;;;3.97;;
56746;SDS011;42623;49.978;9.966;2023-04-19T00:11:35;7.43;;;4.03;;
56746;SDS011;42623;49.978;9.966;2023-04-19T00:11:45;7.28;;;4.00;;
56746;SDS011;42623;49.978;9.966;2023-04-19T00:11:55;7.33;;;3.90;;
56746;SDS011;42623;49.978;9.966;2023-04-19T00:12:06;14.60;;;7.63;;
56746;SDS011;42623;49.978;9.966;2023-04-19T00:12:16;37.47;;;21.23;;
56746;SDS011;42623;49.978;9.966;2023-04-19T00:12:26;46.50;;;27.90;;
56746;SDS011;42623;49.978;9.966;2023-04-19T00:12:36;40.85;;;26.13;;
56746;SDS011;42623;49.978;9.966;2023-04-19T00:12:46;21.73;;;14.30;;
56746;SDS011;42623;49.978;9.966;2023-04-19T00:12:57;14.50;;;8.70;;
56746;SDS011;42623;49.978;9.966;2023-04-19T00:13:07;12.47;;;6.87;;
56746;SDS011;42623;49.978;9.966;2023-04-19T00:13:17;9.80;;;5.35;;
56746;SDS011;42623;49.978;9.966;2023-04-19T00:13:27;8.57;;;4.63;;
56746;SDS011;42623;49.978;9.966;2023-04-19T00:13:37;7.13;;;4.30;;
56746;SDS011;42623;49.978;9.966;2023-04-19T00:13:47;8.13;;;4.57;;
56746;SDS011;42623;49.978;9.966;2023-04-19T00:13:58;8.70;;;4.65;;
56746;SDS011;42623;49.978;9.966;2023-04-19T00:14:08;9.27;;;4.80;;
56746;SDS011;42623;49.978;9.966;2023-04-19T00:14:18;10.10;;;5.00;;
56746;SDS011;42623;49.978;9.966;2023-04-19T00:14:28;9.43;;;4.67;;
56746;SDS011;42623;49.978;9.966;2023-04-19T00:14:38;8.83;;;4.60;;
56746;SDS011;42623;49.978;9.966;2023-04-19T00:14:49;7.80;;;4.73;;
56746;SDS011;42623;49.978;9.966;2023-04-19T00:14:59;8.37;;;5.03;;
56746;SDS011;42623;49.978;9.966;2023-04-19T00:15:09;8.63;;;5.07;;
56746;SDS011;42623;49.978;9.966;2023-04-19T00:15:19;8.13;;;4.82;;
56746;SDS011;42623;49.978;9.966;2023-04-19T00:15:30;8.87;;;4.73;;
56746;SDS011;42623;49.978;9.966;2023-04-19T00:15:40;9.80;;;4.93;;
56746;SDS011;42623;49.978;9.966;2023-04-19T00:15:50;10.43;;;4.82;;
56746;SDS011;42623;49.978;9.966;2023-04-19T00:16:00;8.73;;;4.33;;
56746;SDS011;42623;49.978;9.966;2023-04-19T00:16:11;8.17;;;3.90;;
56746;SDS011;42623;49.978;9.966;2023-04-19T00:16:21;8.63;;;4.23;;
56746;SDS011;42623;49.978;9.966;2023-04-19T00:16:31;9.13;;;4.63;;
56746;SDS011;42623;49.978;9.966;2023-04-19T00:16:41;9.00;;;4.78;;
56746;SDS011;42623;49.978;9.966;2023-04-19T00:16:51;8.43;;;4.60;;
56746;SDS011;42623;49.978;9.966;2023-04-19T00:17:01;8.73;;;4.77;;
56746;SDS011;42623;49.978;9.966;2023-04-19T00:17:12;8.65;;;4.65;;
56746;SDS011;42623;49.978;9.966;2023-04-19T00:17:22;8.17;;;4.47;;
56746;SDS011;42623;49.978;9.966;2023-04-19T00:17:33;8.90;;;4.93;;
56746;SDS011;42623;49.978;9.966;2023-04-19T00:17:43;8.40;;;4.70;;
56746;SDS011;42623;49.978;9.966;2023-04-19T00:17:53;8.30;;;4.53;;
56746;SDS011;42623;49.978;9.966;2023-04-19T00:18:03;7.77;;;4.23;;
56746;SDS011;42623;49.978;9.966;2023-04-19T00:18:13;7.90;;;4.27;;
56746;SDS011;42623;49.978;9.966;2023-04-19T00:18:23;8.43;;;4.72;;
56746;SDS011;42623;49.978;9.966;2023-04-19T00:18:34;7.97;;;4.17;;
56746;SDS011;42623;49.978;9.966;2023-04-19T00:18:44;7.97;;;4.13;;
56746;SDS011;42623;49.978;9.966;2023-04-19T00:18:55;7.35;;;3.60;;
56746;SDS011;42623;49.978;9.966;2023-04-19T00:19:05;9.38;;;4.82;;
56746;SDS011;42623;49.978;9.966;2023-04-19T00:19:15;9.40;;;4.90;;
56746;SDS011;42623;49.978;9.966;2023-04-19T00:19:26;8.52;;;4.60;;
56746;SDS011;42623;49.978;9.966;2023-04-19T00:19:36;6.90;;;3.50;;
56746;SDS011;42623;49.978;9.966;2023-04-19T00:19:47;7.70;;;3.90;;
56746;SDS011;42623;49.978;9.966;2023-04-19T00:19:57;8.97;;;4.33;;
56746;SDS011;42623;49.978;9.966;2023-04-19T00:20:07;8.05;;;4.28;;
56746;SDS011;42623;49.978;9.966;2023-04-19T00:20:19;7.47;;;4.10;;
56746;SDS011;42623;49.978;9.966;2023-04-19T00:20:29;8.05;;;4.20;;
56746;SDS011;42623;49.978;9.966;2023-04-19T00:20:40;8.97;;;4.50;;
56746;SDS011;42623;49.978;9.966;2023-04-19T00:20:50;8.73;;;4.40;;
56746;SDS011;42623;49.978;9.966;2023-04-19T00:21:00;7.78;;;4.50;;
56746;SDS011;42623;49.978;9.966;2023-04-19T00:21:11;7.57;;;4.43;;
56746;SDS011;42623;49.978;9.966;2023-04-19T00:21:21;6.93;;;4.03;;
56746;SDS011;42623;49.978;9.966;2023-04-19T00:21:32;7.07;;;3.92;;
56746;SDS011;42623;49.978;9.966;2023-04-19T00:21:42;7.57;;;4.20;;
56746;SDS011;42623;49.978;9.966;2023-04-19T00:21:52;7.73;;;4.13;;
56746;SDS011;42623;49.978;9.966;2023-04-19T00:22:02;8.33;;;4.23;;
56746;SDS011;42623;49.978;9.966;2023-04-19T00:22:12;7.87;;;4.00;;
56746;SDS011;42623;49.978;9.966;2023-04-19T00:22:23;7.95;;;4.00;;
56746;SDS011;42623;49.978;9.966;2023-04-19T00:22:33;7.70;;;4.40;;
56746;SDS011;42623;49.978;9.966;2023-04-19T00:22:43;7.78;;;4.55;;
56746;SDS011;42623;49.978;9.966;2023-04-19T00:22:53;7.67;;;4.77;;
56746;SDS011;42623;49.978;9.966;2023-04-19T00:23:04;7.33;;;4.13;;
56746;SDS011;42623;49.978;9.966;2023-04-19T00:23:14;6.90;;;4.07;;
56746;SDS011;42623;49.978;9.966;2023-04-19T00:23:24;7.13;;;4.10;;
56746;SDS011;42623;49.978;9.966;2023-04-19T00:23:34;7.33;;;4.40;;
56746;SDS011;42623;49.978;9.966;2023-04-19T00:23:45;8.27;;;4.67;;
56746;SDS011;42623;49.978;9.966;2023-04-19T00:23:55;8.10;;;4.40;;
56746;SDS011;42623;49.978;9.966;2023-04-19T00:24:05;8.55;;;4.60;;
56746;SDS011;42623;49.978;9.966;2023-04-19T00:24:16;7.77;;;4.17;;
56746;SDS011;42623;49.978;9.966;2023-04-19T00:24:26;7.53;;;4.10;;
56746;SDS011;42623;49.978;9.966;2023-04-19T00:24:36;7.10;;;3.63;;
56746;SDS011;42623;49.978;9.966;2023-04-19T00:24:46;6.97;;;3.73;;
56746;SDS011;42623;49.978;9.966;2023-04-19T00:24:56;7.73;;;4.03;;
56746;SDS011;42623;49.978;9.966;2023-04-19T00:25:07;7.90;;;4.20;;
56746;SDS011;42623;49.978;9.966;2023-04-19T00:25:17;7.97;;;4.10;;
56746;SDS011;42623;49.978;9.966;2023-04-19T00:25:27;7.57;;;3.83;;
56746;SDS011;42623;49.978;9.966;2023-04-19T00:25:39;7.53;;;3.97;;
56746;SDS011;42623;49.978;9.966;2023-04-19T00:25:49;6.80;;;3.87;;
56746;SDS011;42623;49.978;9.966;2023-04-19T00:26:02;6.55;;;4.03;;
56746;SDS011;42623;49.978;9.966;2023-04-19T00:26:13;6.88;;;4.20;;
56746;SDS011;42623;49.978;9.966;2023-04-19T00:26:24;8.35;;;4.10;;
56746;SDS011;42623;49.978;9.966;2023-04-19T00:26:34;9.63;;;4.97;;
56746;SDS011;42623;49.978;9.966;2023-04-19T00:26:45;10.53;;;5.77;;
56746;SDS011;42623;49.978;9.966;2023-04-19T00:26:55;9.47;;;5.53;;
56746;SDS011;42623;49.978;9.966;2023-04-19T00:27:06;10.02;;;5.57;;
56746;SDS011;42623;49.978;9.966;2023-04-19T00:27:16;9.67;;;4.83;;
56746;SDS011;42623;49.978;9.966;2023-04-19T00:27:26;9.83;;;4.93;;
56746;SDS011;42623;49.978;9.966;2023-04-19T00:27:36;8.67;;;4.43;;
56746;SDS011;42623;49.978;9.966;2023-04-19T00:27:46;7.97;;;4.67;;
56746;SDS011;42623;49.978;9.966;2023-04-19T00:27:57;8.30;;;4.87;;
56746;SDS011;42623;49.978;9.966;2023-04-19T00:28:07;8.07;;;4.97;;
56746;SDS011;42623;49.978;9.966;2023-04-19T00:28:17;9.60;;;4.87;;
56746;SDS011;42623;49.978;9.966;2023-04-19T00:28:27;9.77;;;4.67;;
56746;SDS011;42623;49.978;9.966;2023-04-19T00:28:37;9.20;;;4.30;;
56746;SDS011;42623;49.978;9.966;2023-04-19T00:28:47;8.03;;;4.30;;
56746;SDS011;42623;49.978;9.966;2023-04-19T00:28:58;7.30;;;4.32;;
56746;SDS011;42623;49.978;9.966;2023-04-19T00:29:08;7.73;;;4.57;;
56746;SDS011;42623;49.978;9.966;2023-04-19T00:29:18;9.03;;;4.77;;
56746;SDS011;42623;49.978;9.966;2023-04-19T00:29:28;9.17;;;4.73;;
56746;SDS011;42623;49.978;9.966;2023-04-19T00:29:38;9.05;;;4.68;;
56746;SDS011;42623;49.978;9.966;2023-04-19T00:29:49;6.93;;;4.33;;
56746;SDS011;42623;49.978;9.966;2023-04-19T00:29:59;7.63;;;4.80;;
56746;SDS011;42623;49.978;9.966;2023-04-19T00:30:10;8.27;;;5.53;;
56746;SDS011;42623;49.978;9.966;2023-04-19T00:30:20;8.43;;;5.50;;
56746;SDS011;42623;49.978;9.966;2023-04-19T00:30:30;7.93;;;4.97;;
56746;SDS011;42623;49.978;9.966;2023-04-19T00:30:40;6.82;;;3.88;;
56746;SDS011;42623;49.978;9.966;2023-04-19T00:30:50;7.17;;;4.00;;
56746;SDS011;42623;49.978;9.966;2023-04-19T00:31:00;7.40;;;4.70;;
56746;SDS011;42623;49.978;9.966;2023-04-19T00:31:10;8.47;;;5.30;;
56746;SDS011;42623;49.978;9.966;2023-04-19T00:31:21;8.80;;;5.30;;
56746;SDS011;42623;49.978;9.966;2023-04-19T00:31:31;9.47;;;5.13;;
56746;SDS011;42623;49.978;9.966;2023-04-19T00:31:41;10.18;;;5.70;;
56746;SDS011;42623;49.978;9.966;2023-04-19T00:31:51;10.67;;;5.77;;
56746;SDS011;42623;49.978;9.966;2023-04-19T00:32:02;9.57;;;5.30;;
56746;SDS011;42623;49.978;9.966;2023-04-19T00:32:14;8.38;;;4.53;;
56746;SDS011;42623;49.978;9.966;2023-04-19T00:32:25;8.63;;;4.68;;
56746;SDS011;42623;49.978;9.966;2023-04-19T00:32:35;8.37;;;4.30;;
56746;SDS011;42623;49.978;9.966;2023-04-19T00:32:45;7.77;;;4.17;;
56746;SDS011;42623;49.978;9.966;2023-04-19T00:32:55;7.43;;;4.23;;
56746;SDS011;42623;49.978;9.966;2023-04-19T00:33:05;7.57;;;4.63;;
56746;SDS011;42623;49.978;9.966;2023-04-19T00:33:21;7.35;;;4.70;;
56746;SDS011;42623;49.978;9.966;2023-04-19T00:33:31;6.43;;;3.93;;
56746;SDS011;42623;49.978;9.966;2023-04-19T00:33:42;6.33;;;4.00;;
56746;SDS011;42623;49.978;9.966;2023-04-19T00:33:52;6.37;;;4.07;;
56746;SDS011;42623;49.978;9.966;2023-04-19T00:34:02;7.33;;;4.50;;
56746;SDS011;42623;49.978;9.966;2023-04-19T00:34:12;7.13;;;4.10;;
56746;SDS011;42623;49.978;9.966;2023-04-19T00:34:22;7.43;;;4.15;;
56746;SDS011;42623;49.978;9.966;2023-04-19T00:34:32;6.70;;;3.97;;
56746;SDS011;42623;49.978;9.966;2023-04-19T00:34:43;6.90;;;3.93;;
56746;SDS011;42623;49.978;9.966;2023-04-19T00:34:53;7.03;;;4.47;;
56746;SDS011;42623;49.978;9.966;2023-04-19T00:35:03;7.63;;;5.10;;
56746;SDS011;42623;49.978;9.966;2023-04-19T00:35:13;7.67;;;5.03;;
56746;SDS011;42623;49.978;9.966;2023-04-19T00:35:23;7.23;;;4.27;;
56746;SDS011;42623;49.978;9.966;2023-04-19T00:35:34;6.10;;;3.37;;
56746;SDS011;42623;49.978;9.966;2023-04-19T00:35:44;6.40;;;3.78;;
56746;SDS011;42623;49.978;9.966;2023-04-19T00:35:54;7.50;;;4.43;;
56746;SDS011;42623;49.978;9.966;2023-04-19T00:36:05;8.50;;;4.83;;
56746;SDS011;42623;49.978;9.966;2023-04-19T00:36:15;7.60;;;4.10;;
56746;SDS011;42623;49.978;9.966;2023-04-19T00:36:25;6.63;;;3.70;;
56746;SDS011;42623;49.978;9.966;2023-04-19T00:36:36;6.50;;;3.75;;
56746;SDS011;42623;49.978;9.966;2023-04-19T00:36:46;6.47;;;3.73;;
56746;SDS011;42623;49.978;9.966;2023-04-19T00:36:56;6.73;;;3.87;;
56746;SDS011;42623;49.978;9.966;2023-04-19T00:37:07;7.40;;;3.70;;
56746;SDS011;42623;49.978;9.966;2023-04-19T00:37:18;8.07;;;4.15;;
56746;SDS011;42623;49.978;9.966;2023-04-19T00:37:28;7.87;;;4.13;;
56746;SDS011;42623;49.978;9.966;2023-04-19T00:37:38;7.57;;;4.10;;
56746;SDS011;42623;49.978;9.966;2023-04-19T00:37:48;7.90;;;4.30;;
56746;SDS011;42623;49.978;9.966;2023-04-19T00:37:58;7.40;;;4.13;;
56746;SDS011;42623;49.978;9.966;2023-04-19T00:38:08;8.23;;;4.30;;
56746;SDS011;42623;49.978;9.966;2023-04-19T00:38:19;7.90;;;3.67;;
56746;SDS011;42623;49.978;9.966;2023-04-19T00:38:29;10.57;;;4.00;;
56746;SDS011;42623;49.978;9.966;2023-04-19T00:38:39;9.23;;;3.42;;
56746;SDS011;42623;49.978;9.966;2023-04-19T00:38:49;9.13;;;3.67;;
56746;SDS011;42623;49.978;9.966;2023-04-19T00:38:59;6.67;;;3.30;;
56746;SDS011;42623;49.978;9.966;2023-04-19T00:39:10;7.20;;;3.57;;
56746;SDS011;42623;49.978;9.966;2023-04-19T00:39:20;7.40;;;3.80;;
56746;SDS011;42623;49.978;9.966;2023-04-19T00:39:30;7.47;;;3.90;;
56746;SDS011;42623;49.978;9.966;2023-04-19T00:39:40;7.63;;;4.23;;
56746;SDS011;42623;49.978;9.966;2023-04-19T00:39:50;7.63;;;4.50;;
56746;SDS011;42623;49.978;9.966;2023-04-19T00:40:00;7.30;;;4.40;;
56746;SDS011;42623;49.978;9.966;2023-04-19T00:40:11;7.27;;;4.30;;
56746;SDS011;42623;49.978;9.966;2023-04-19T00:40:21;7.53;;;3.87;;
56746;SDS011;42623;49.978;9.966;2023-04-19T00:40:31;7.90;;;4.00;;
56746;SDS011;42623;49.978;9.966;2023-04-19T00:40:41;7.80;;;3.95;;
56746;SDS011;42623;49.978;9.966;2023-04-19T00:40:51;6.87;;;4.10;;
56746;SDS011;42623;49.978;9.966;2023-04-19T00:41:02;7.00;;;4.30;;
56746;SDS011;42623;49.978;9.966;2023-04-19T00:41:12;6.90;;;4.10;;
56746;SDS011;42623;49.978;9.966;2023-04-19T00:41:22;7.23;;;4.23;;
56746;SDS011;42623;49.978;9.966;2023-04-19T00:41:32;7.25;;;4.05;;
56746;SDS011;42623;49.978;9.966;2023-04-19T00:41:42;7.20;;;4.00;;
56746;SDS011;42623;49.978;9.966;2023-04-19T00:41:52;7.50;;;3.90;;
56746;SDS011;42623;49.978;9.966;2023-04-19T00:42:03;7.60;;;3.90;;
56746;SDS011;42623;49.978;9.966;2023-04-19T00:42:13;7.23;;;3.80;;
56746;SDS011;42623;49.978;9.966;2023-04-19T00:42:23;7.72;;;4.00;;
56746;SDS011;42623;49.978;9.966;2023-04-19T00:42:33;7.67;;;4.20;;
56746;SDS011;42623;49.978;9.966;2023-04-19T00:42:43;7.60;;;4.13;;
56746;SDS011;42623;49.978;9.966;2023-04-19T00:42:53;7.13;;;3.97;;
56746;SDS011;42623;49.978;9.966;2023-04-19T00:43:03;9.00;;;4.50;;
56746;SDS011;42623;49.978;9.966;2023-04-19T00:43:17;9.18;;;4.55;;
56746;SDS011;42623;49.978;9.966;2023-04-19T00:43:27;9.43;;;4.72;;
56746;SDS011;42623;49.978;9.966;2023-04-19T00:43:38;8.63;;;4.23;;
56746;SDS011;42623;49.978;9.966;2023-04-19T00:43:48;8.63;;;4.23;;
56746;SDS011;42623;49.978;9.966;2023-04-19T00:43:58;8.20;;;4.00;;
56746;SDS011;42623;49.978;9.966;2023-04-19T00:44:08;9.40;;;4.63;;
56746;SDS011;42623;49.978;9.966;2023-04-19T00:44:18;9.87;;;4.53;;
56746;SDS011;42623;49.978;9.966;2023-04-19T00:44:28;9.40;;;4.45;;
56746;SDS011;42623;49.978;9.966;2023-04-19T00:44:38;7.67;;;4.00;;
56746;SDS011;42623;49.978;9.966;2023-04-19T00:44:49;7.27;;;4.10;;
56746;SDS011;42623;49.978;9.966;2023-04-19T00:44:59;7.27;;;4.10;;
56746;SDS011;42623;49.978;9.966;2023-04-19T00:45:10;7.15;;;3.90;;
56746;SDS011;42623;49.978;9.966;2023-04-19T00:45:20;6.53;;;3.45;;
56746;SDS011;42623;49.978;9.966;2023-04-19T00:45:31;7.23;;;3.57;;
56746;SDS011;42623;49.978;9.966;2023-04-19T00:45:41;6.72;;;3.45;;
56746;SDS011;42623;49.978;9.966;2023-04-19T00:45:51;7.87;;;4.07;;
56746;SDS011;42623;49.978;9.966;2023-04-19T00:46:02;7.72;;;4.07;;
56746;SDS011;42623;49.978;9.966;2023-04-19T00:46:13;7.93;;;4.33;;
56746;SDS011;42623;49.978;9.966;2023-04-19T00:46:23;7.13;;;3.92;;
56746;SDS011;42623;49.978;9.966;2023-04-19T00:46:35;8.10;;;4.18;;
56746;SDS011;42623;49.978;9.966;2023-04-19T00:46:46;8.50;;;4.53;;
56746;SDS011;42623;49.978;9.966;2023-04-19T00:46:56;8.77;;;4.40;;
56746;SDS011;42623;49.978;9.966;2023-04-19T00:47:06;7.53;;;3.90;;
56746;SDS011;42623;49.978;9.966;2023-04-19T00:47:16;7.78;;;4.20;;
56746;SDS011;42623;49.978;9.966;2023-04-19T00:47:27;6.80;;;3.90;;
56746;SDS011;42623;49.978;9.966;2023-04-19T00:47:37;6.97;;;3.90;;
56746;SDS011;42623;49.978;9.966;2023-04-19T00:47:47;6.45;;;3.10;;
56746;SDS011;42623;49.978;9.966;2023-04-19T00:47:58;6.83;;;3.40;;
56746;SDS011;42623;49.978;9.966;2023-04-19T00:48:08;7.47;;;3.77;;
56746;SDS011;42623;49.978;9.966;2023-04-19T00:48:19;7.90;;;4.45;;
56746;SDS011;42623;49.978;9.966;2023-04-19T00:48:29;7.57;;;4.40;;
56746;SDS011;42623;49.978;9.966;2023-04-19T00:48:39;6.88;;;4.35;;
56746;SDS011;42623;49.978;9.966;2023-04-19T00:48:50;6.77;;;4.03;;
56746;SDS011;42623;49.978;9.966;2023-04-19T00:49:00;6.50;;;3.77;;
56746;SDS011;42623;49.978;9.966;2023-04-19T00:49:10;6.73;;;3.57;;
56746;SDS011;42623;49.978;9.966;2023-04-19T00:49:21;6.25;;;3.67;;
56746;SDS011;42623;49.978;9.966;2023-04-19T00:49:31;7.07;;;3.90;;
56746;SDS011;42623;49.978;9.966;2023-04-19T00:49:42;6.47;;;3.80;;
56746;SDS011;42623;49.978;9.966;2023-04-19T00:49:52;7.55;;;4.07;;
56746;SDS011;42623;49.978;9.966;2023-04-19T00:50:02;6.77;;;4.00;;
56746;SDS011;42623;49.978;9.966;2023-04-19T00:50:13;6.82;;;3.78;;
56746;SDS011;42623;49.978;9.966;2023-04-19T00:50:23;6.43;;;3.70;;
56746;SDS011;42623;49.978;9.966;2023-04-19T00:50:34;7.30;;;4.20;;
56746;SDS011;42623;49.978;9.966;2023-04-19T00:50:45;7.50;;;4.40;;
56746;SDS011;42623;49.978;9.966;2023-04-19T00:50:55;7.20;;;4.17;;
56746;SDS011;42623;49.978;9.966;2023-04-19T00:51:05;6.40;;;3.65;;
56746;SDS011;42623;49.978;9.966;2023-04-19T00:51:16;6.53;;;3.73;;
56746;SDS011;42623;49.978;9.966;2023-04-19T00:51:26;7.03;;;4.07;;
56746;SDS011;42623;49.978;9.966;2023-04-19T00:51:36;8.50;;;4.47;;
56746;SDS011;42623;49.978;9.966;2023-04-19T00:51:47;8.17;;;4.23;;
56746;SDS011;42623;49.978;9.966;2023-04-19T00:51:58;7.82;;;3.97;;
56746;SDS011;42623;49.978;9.966;2023-04-19T00:52:08;6.95;;;3.70;;
56746;SDS011;42623;49.978;9.966;2023-04-19T00:52:18;7.57;;;3.87;;
56746;SDS011;42623;49.978;9.966;2023-04-19T00:52:29;8.73;;;4.13;;
56746;SDS011;42623;49.978;9.966;2023-04-19T00:52:39;8.43;;;3.95;;
56746;SDS011;42623;49.978;9.966;2023-04-19T00:52:49;8.07;;;4.00;;
56746;SDS011;42623;49.978;9.966;2023-04-19T00:53:00;6.10;;;3.58;;
56746;SDS011;42623;49.978;9.966;2023-04-19T00:53:11;7.00;;;4.00;;
56746;SDS011;42623;49.978;9.966;2023-04-19T00:53:21;7.70;;;4.40;;
56746;SDS011;42623;49.978;9.966;2023-04-19T00:53:31;8.07;;;4.20;;
56746;SDS011;42623;49.978;9.966;2023-04-19T00:53:41;7.70;;;4.20;;
56746;SDS011;42623;49.978;9.966;2023-04-19T00:53:52;8.15;;;4.15;;
56746;SDS011;42623;49.978;9.966;2023-04-19T00:54:02;8.20;;;4.40;;
56746;SDS011;42623;49.978;9.966;2023-04-19T00:54:13;8.27;;;4.00;;
56746;SDS011;42623;49.978;9.966;2023-04-19T00:54:23;6.80;;;3.53;;
56746;SDS011;42623;49.978;9.966;2023-04-19T00:54:34;6.47;;;3.23;;
56746;SDS011;42623;49.978;9.966;2023-04-19T00:54:45;6.25;;;3.38;;
56746;SDS011;42623;49.978;9.966;2023-04-19T00:54:56;6.57;;;3.67;;
56746;SDS011;42623;49.978;9.966;2023-04-19T00:55:07;7.57;;;3.58;;
56746;SDS011;42623;49.978;9.966;2023-04-19T00:55:17;8.03;;;3.60;;
56746;SDS011;42623;49.978;9.966;2023-04-19T00:55:27;7.93;;;3.75;;
56746;SDS011;42623;49.978;9.966;2023-04-19T00:55:38;7.37;;;3.97;;
56746;SDS011;42623;49.978;9.966;2023-04-19T00:55:48;7.85;;;4.70;;
56746;SDS011;42623;49.978;9.966;2023-04-19T00:56:01;8.43;;;4.90;;
56746;SDS011;42623;49.978;9.966;2023-04-19T00:56:13;7.85;;;4.55;;
56746;SDS011;42623;49.978;9.966;2023-04-19T00:56:23;7.37;;;4.13;;
56746;SDS011;42623;49.978;9.966;2023-04-19T00:56:35;7.72;;;4.30;;
56746;SDS011;42623;49.978;9.966;2023-04-19T00:56:45;7.40;;;4.07;;
56746;SDS011;42623;49.978;9.966;2023-04-19T00:56:56;7.32;;;4.13;;
56746;SDS011;42623;49.978;9.966;2023-04-19T00:57:07;6.82;;;3.88;;
56746;SDS011;42623;49.978;9.966;2023-04-19T00:57:17;6.33;;;3.50;;
56746;SDS011;42623;49.978;9.966;2023-04-19T00:57:28;6.13;;;3.53;;
56746;SDS011;42623;49.978;9.966;2023-04-19T00:57:38;6.18;;;3.45;;
56746;SDS011;42623;49.978;9.966;2023-04-19T00:57:49;6.32;;;3.60;;
56746;SDS011;42623;49.978;9.966;2023-04-19T00:58:00;6.72;;;3.75;;
56746;SDS011;42623;49.978;9.966;2023-04-19T00:58:11;7.30;;;4.10;;
56746;SDS011;42623;49.978;9.966;2023-04-19T00:58:21;7.93;;;4.20;;
56746;SDS011;42623;49.978;9.966;2023-04-19T00:58:32;7.22;;;3.88;;
56746;SDS011;42623;49.978;9.966;2023-04-19T00:58:42;7.80;;;4.00;;
56746;SDS011;42623;49.978;9.966;2023-04-19T00:58:52;7.50;;;3.72;;
56746;SDS011;42623;49.978;9.966;2023-04-19T00:59:03;8.07;;;3.70;;
56746;SDS011;42623;49.978;9.966;2023-04-19T00:59:13;7.27;;;3.30;;
56746;SDS011;42623;49.978;9.966;2023-04-19T00:59:23;6.53;;;3.30;;
56746;SDS011;42623;49.978;9.966;2023-04-19T00:59:33;7.10;;;3.80;;
56746;SDS011;42623;49.978;9.966;2023-04-19T00:59:44;7.13;;;3.87;;
56746;SDS011;42623;49.978;9.966;2023-04-19T00:59:54;7.45;;;3.97;;
56746;SDS011;42623;49.978;9.966;2023-04-19T01:00:05;7.10;;;3.87;;
56746;SDS011;42623;49.978;9.966;2023-04-19T01:00:17;7.47;;;4.18;;
56746;SDS011;42623;49.978;9.966;2023-04-19T01:00:27;7.33;;;3.87;;
56746;SDS011;42623;49.978;9.966;2023-04-19T01:00:37;7.43;;;3.83;;
56746;SDS011;42623;49.978;9.966;2023-04-19T01:00:48;7.18;;;3.60;;
56746;SDS011;42623;49.978;9.966;2023-04-19T01:00:58;6.87;;;3.70;;
56746;SDS011;42623;49.978;9.966;2023-04-19T01:01:09;7.22;;;3.55;;
56746;SDS011;42623;49.978;9.966;2023-04-19T01:01:19;7.50;;;3.70;;
56746;SDS011;42623;49.978;9.966;2023-04-19T01:01:29;7.68;;;3.88;;
56746;SDS011;42623;49.978;9.966;2023-04-19T01:01:40;7.17;;;3.73;;
56746;SDS011;42623;49.978;9.966;2023-04-19T01:01:50;6.50;;;3.57;;
56746;SDS011;42623;49.978;9.966;2023-04-19T01:02:00;5.75;;;3.08;;
56746;SDS011;42623;49.978;9.966;2023-04-19T01:02:11;5.70;;;3.27;;
56746;SDS011;42623;49.978;9.966;2023-04-19T01:02:21;5.73;;;3.27;;
56746;SDS011;42623;49.978;9.966;2023-04-19T01:02:32;6.25;;;3.47;;
56746;SDS011;42623;49.978;9.966;2023-04-19T01:02:42;6.10;;;3.60;;
56746;SDS011;42623;49.978;9.966;2023-04-19T01:02:52;6.27;;;3.67;;
56746;SDS011;42623;49.978;9.966;2023-04-19T01:03:04;5.93;;;3.72;;